Time;durP1;ratioP1;P1;durP2;ratioP2;P2;SDS_P1;SDS_P2;PMS_P1;PMS_P2;Temp;Humidity;BMP_temperature;BMP_pressure;BME280_temperature;BME280_humidity;BME280_pressure;Samples;Min_cycle;Max_cycle;Signal;HPM_P1;HPM_P2
2022/11/01 00:00:18;;;;;;;6.90;4.80;;;12.90;99.90;;;;;;4879814;29;20067;-72
2022/11/01 00:02:44;;;;;;;5.60;4.40;;;13.10;99.90;;;;;;4864016;29;20434;-72
2022/11/01 00:05:10;;;;;;;6.07;4.55;;;12.90;99.90;;;;;;4892800;29;20048;-72
2022/11/01 00:07:35;;;;;;;8.00;4.53;;;13.20;99.90;;;;;;4913751;29;20086;-72
2022/11/01 00:10:01;;;;;;;6.90;4.47;;;13.20;99.90;;;;;;4898302;29;20044;-72
2022/11/01 00:12:29;;;;;;;7.93;4.82;;;13.20;99.90;;;;;;4913050;29;20052;-73
2022/11/01 00:14:55;;;;;;;6.72;4.75;;;13.00;99.90;;;;;;4896655;29;20500;-72
2022/11/01 00:17:21;;;;;;;5.75;4.03;;;13.10;99.90;;;;;;4912125;29;20240;-72
2022/11/01 00:19:46;;;;;;;7.20;4.70;;;13.20;99.90;;;;;;4914280;29;20060;-73
2022/11/01 00:22:12;;;;;;;6.70;4.60;;;12.90;99.90;;;;;;4897939;29;20072;-72
2022/11/01 00:24:37;;;;;;;7.00;4.85;;;12.90;99.90;;;;;;4913617;29;20047;-72
2022/11/01 00:27:03;;;;;;;6.57;4.80;;;13.10;99.90;;;;;;4913641;29;22711;-72
2022/11/01 00:29:29;;;;;;;5.90;4.45;;;13.20;99.90;;;;;;4898011;29;20152;-72
2022/11/01 00:31:54;;;;;;;5.57;4.32;;;13.00;99.90;;;;;;4897605;29;20485;-72
2022/11/01 00:34:20;;;;;;;4.80;3.95;;;13.10;99.90;;;;;;4897584;29;20119;-72
2022/11/01 00:36:46;;;;;;;9.55;5.20;;;13.00;99.90;;;;;;4897656;29;20044;-72
2022/11/01 00:39:13;;;;;;;6.68;5.53;;;13.20;99.90;;;;;;4863221;29;20044;-72
2022/11/01 00:41:39;;;;;;;7.72;5.25;;;13.20;99.90;;;;;;4897476;29;20127;-73
2022/11/01 00:44:05;;;;;;;6.22;4.53;;;13.30;99.90;;;;;;4913603;29;20233;-73
2022/11/01 00:46:31;;;;;;;5.03;3.70;;;13.10;99.90;;;;;;4914725;29;20547;-73
2022/11/01 00:48:57;;;;;;;5.00;3.92;;;13.10;99.90;;;;;;4911011;29;20084;-72
2022/11/01 00:51:23;;;;;;;6.72;4.70;;;13.10;99.90;;;;;;4897008;29;20044;-72
2022/11/01 00:53:49;;;;;;;6.80;4.43;;;13.10;99.90;;;;;;4918444;29;20107;-73
2022/11/01 00:56:15;;;;;;;6.97;4.32;;;13.30;99.90;;;;;;4881236;29;20484;-72
2022/11/01 00:58:40;;;;;;;7.65;4.82;;;13.30;99.90;;;;;;4904939;29;20047;-72
2022/11/01 01:01:06;;;;;;;6.97;4.70;;;13.30;99.90;;;;;;4879417;29;20508;-73
2022/11/01 01:03:32;;;;;;;5.85;4.80;;;13.40;99.90;;;;;;4894829;29;20048;-73
2022/11/01 01:05:57;;;;;;;7.60;4.82;;;13.40;99.90;;;;;;4896690;29;20043;-73
2022/11/01 01:08:24;;;;;;;8.50;5.30;;;13.50;99.90;;;;;;4911229;29;20400;-73
2022/11/01 01:10:50;;;;;;;7.72;5.15;;;13.30;99.90;;;;;;4880558;29;20056;-73
2022/11/01 01:13:16;;;;;;;7.40;4.50;;;13.50;99.90;;;;;;4881283;29;20044;-73
2022/11/01 01:15:42;;;;;;;5.65;4.40;;;13.30;99.90;;;;;;4881551;29;20409;-73
2022/11/01 01:18:07;;;;;;;5.13;4.15;;;13.30;99.90;;;;;;4896375;29;20407;-73
2022/11/01 01:20:33;;;;;;;5.75;4.13;;;13.50;99.90;;;;;;4896827;29;20471;-73
2022/11/01 01:22:59;;;;;;;7.13;4.90;;;13.30;99.90;;;;;;4913465;29;20055;-73
2022/11/01 01:25:25;;;;;;;8.48;4.85;;;13.40;99.90;;;;;;4911930;29;20040;-74
2022/11/01 01:27:50;;;;;;;6.60;4.32;;;13.50;99.90;;;;;;4908259;29;20132;-73
2022/11/01 01:30:16;;;;;;;7.05;4.22;;;13.40;99.90;;;;;;4880625;29;20060;-73
2022/11/01 01:32:42;;;;;;;4.95;3.60;;;13.50;99.90;;;;;;4896644;29;20095;-73
2022/11/01 01:35:08;;;;;;;7.25;4.22;;;13.60;99.90;;;;;;4895999;29;20424;-73
2022/11/01 01:37:34;;;;;;;;;;;13.60;99.90;;;;;;4894940;29;20047;-73
2022/11/01 01:40:00;;;;;;;7.43;4.97;;;13.50;99.90;;;;;;4881058;29;19923;-73
2022/11/01 01:42:35;;;;;;;7.78;4.93;;;13.70;99.90;;;;;;4896362;29;20058;-72
2022/11/01 01:45:04;;;;;;;7.22;4.50;;;13.80;99.90;;;;;;4902065;29;20044;-73
2022/11/01 01:47:31;;;;;;;6.28;4.00;;;13.70;99.90;;;;;;4882296;29;20465;-73
2022/11/01 01:50:20;;;;;;;5.00;3.10;;;13.70;99.90;;;;;;4901037;29;20083;-73
2022/11/01 01:52:51;;;;;;;5.38;3.33;;;13.80;99.90;;;;;;4900416;29;20584;-73
2022/11/01 01:55:22;;;;;;;4.47;3.13;;;13.80;99.90;;;;;;4900543;29;20050;-73
2022/11/01 01:57:50;;;;;;;4.53;2.90;;;13.70;99.90;;;;;;4899478;29;20048;-73
2022/11/01 02:00:16;;;;;;;6.95;3.35;;;13.80;99.90;;;;;;4900863;29;20055;-73
2022/11/01 02:02:42;;;;;;;5.35;3.38;;;13.80;99.90;;;;;;4900362;29;20059;-70
2022/11/01 02:05:18;;;;;;;5.35;3.42;;;13.90;99.90;;;;;;4899160;29;20047;-73
2022/11/01 02:07:45;;;;;;;5.38;3.50;;;13.90;99.90;;;;;;4899031;29;20884;-73
2022/11/01 02:10:13;;;;;;;6.93;4.05;;;13.90;99.90;;;;;;4899572;29;20051;-74
2022/11/01 02:12:45;;;;;;;6.25;3.83;;;13.90;99.90;;;;;;4899738;29;20056;-73
2022/11/01 02:15:12;;;;;;;5.70;3.95;;;13.90;99.90;;;;;;4884684;29;20068;-73
2022/11/01 02:17:52;;;;;;;7.88;4.70;;;13.90;99.90;;;;;;4892813;29;20391;-73
2022/11/01 02:20:41;;;;;;;5.55;3.83;;;14.00;99.90;;;;;;4896900;29;20059;-73
2022/11/01 02:23:07;;;;;;;6.32;3.83;;;14.00;99.90;;;;;;4886148;29;20500;-73
2022/11/01 02:25:54;;;;;;;3.55;3.00;;;14.00;99.90;;;;;;4899411;29;20052;-73
2022/11/01 02:28:46;;;;;;;5.75;3.70;;;13.90;99.90;;;;;;4895286;29;20429;-74
2022/11/01 02:31:40;;;;;;;4.60;3.30;;;14.10;99.90;;;;;;4899063;29;20056;-73
2022/11/01 02:34:16;;;;;;;7.30;3.70;;;14.00;99.90;;;;;;4898963;29;20047;-73
2022/11/01 02:36:47;;;;;;;4.73;3.50;;;14.00;99.90;;;;;;4899327;29;20076;-71
2022/11/01 02:39:21;;;;;;;5.43;4.28;;;14.10;99.90;;;;;;4898198;29;20311;-72
2022/11/01 02:41:54;;;;;;;5.82;3.35;;;14.10;99.90;;;;;;4913257;29;20055;-72
2022/11/01 02:44:38;;;;;;;6.72;4.00;;;14.10;99.90;;;;;;4905318;29;20040;-72
2022/11/01 02:47:05;;;;;;;4.65;3.47;;;14.20;99.90;;;;;;4899634;29;20044;-73
2022/11/01 02:49:38;;;;;;;4.75;3.28;;;14.20;99.90;;;;;;4901868;29;20421;-73
2022/11/01 02:52:07;;;;;;;4.90;3.85;;;14.20;99.90;;;;;;4881676;29;20048;-72
2022/11/01 02:54:42;;;;;;;5.80;3.70;;;14.10;99.90;;;;;;4870581;29;20058;-72
2022/11/01 02:57:31;;;;;;;7.25;3.90;;;14.20;99.90;;;;;;4899554;29;20115;-72
2022/11/01 03:00:03;;;;;;;6.15;3.40;;;14.20;99.90;;;;;;4898619;29;20404;-72
2022/11/01 03:02:39;;;;;;;7.43;3.78;;;14.30;99.90;;;;;;4882882;29;20044;-73
2022/11/01 03:05:18;;;;;;;4.35;2.88;;;14.20;99.90;;;;;;4899172;29;20119;-72
2022/11/01 03:07:50;;;;;;;5.20;3.30;;;14.30;99.90;;;;;;4900627;29;20161;-72
2022/11/01 03:10:17;;;;;;;5.32;3.45;;;14.40;99.90;;;;;;4912021;29;20048;-73
2022/11/01 03:12:56;;;;;;;7.18;3.80;;;14.30;99.90;;;;;;4914599;29;20042;-72
2022/11/01 03:15:28;;;;;;;5.85;3.58;;;14.40;99.90;;;;;;4910317;29;20044;-73
2022/11/01 03:18:09;;;;;;;5.22;3.80;;;14.40;99.90;;;;;;4913780;29;20036;-73
2022/11/01 03:20:48;;;;;;;5.50;3.60;;;14.50;99.90;;;;;;4883672;29;20040;-73
2022/11/01 03:23:19;;;;;;;9.43;3.80;;;14.50;99.90;;;;;;4898262;29;20062;-73
2022/11/01 03:25:53;;;;;;;6.72;3.53;;;14.40;99.90;;;;;;4882979;29;20131;-73
2022/11/01 03:28:27;;;;;;;5.85;3.95;;;14.50;99.90;;;;;;4914532;29;20032;-73
2022/11/01 03:31:02;;;;;;;8.32;3.67;;;14.50;99.90;;;;;;4882601;29;20056;-73
2022/11/01 03:33:31;;;;;;;6.40;3.70;;;14.50;99.90;;;;;;4898291;29;20044;-73
2022/11/01 03:36:06;;;;;;;3.95;2.85;;;14.60;99.90;;;;;;4902196;29;20056;-72
2022/11/01 03:38:36;;;;;;;4.15;2.70;;;14.50;99.90;;;;;;4897458;29;20044;-72
2022/11/01 03:41:05;;;;;;;5.03;3.00;;;14.60;99.90;;;;;;4899014;29;20048;-72
2022/11/01 03:43:34;;;;;;;6.55;4.00;;;14.50;99.90;;;;;;4898349;29;20044;-72
2022/11/01 03:46:00;;;;;;;4.88;3.58;;;14.60;99.90;;;;;;4914671;29;20166;-72
2022/11/01 03:48:25;;;;;;;6.38;3.25;;;14.60;99.90;;;;;;4881631;29;20488;-73
2022/11/01 03:50:55;;;;;;;5.43;3.30;;;14.60;99.90;;;;;;4898068;29;20076;-73
2022/11/01 03:53:21;;;;;;;8.10;3.85;;;14.60;99.90;;;;;;4897583;29;20408;-74
2022/11/01 03:55:47;;;;;;;;;;;14.70;99.90;;;;;;4898898;29;20052;-72
2022/11/01 03:58:12;;;;;;;4.63;3.30;;;14.60;99.90;;;;;;4901230;29;19919;-73
2022/11/01 04:00:41;;;;;;;4.80;3.05;;;14.70;99.90;;;;;;4870269;29;20481;-73
2022/11/01 04:03:08;;;;;;;5.93;3.28;;;14.60;99.90;;;;;;4880103;29;20063;-73
2022/11/01 04:05:35;;;;;;;5.43;3.75;;;14.70;99.90;;;;;;4897192;29;20048;-74
2022/11/01 04:08:01;;;;;;;5.40;3.28;;;14.70;99.90;;;;;;4897337;29;20047;-73
2022/11/01 04:10:30;;;;;;;5.55;3.05;;;14.60;99.90;;;;;;4898360;29;20131;-73
2022/11/01 04:12:56;;;;;;;4.13;2.85;;;14.80;99.90;;;;;;4897345;29;20123;-73
2022/11/01 04:21:00;;;;;;;4.15;2.60;;;14.80;99.90;;;;;;4897887;29;20059;-73
2022/11/01 04:23:25;;;;;;;5.38;2.42;;;14.80;99.90;;;;;;4896268;29;20048;-74
2022/11/01 04:25:51;;;;;;;4.55;2.72;;;14.80;99.90;;;;;;4898763;29;20090;-74
2022/11/01 04:28:17;;;;;;;3.70;2.38;;;14.80;99.90;;;;;;4896537;29;20048;-71
2022/11/01 04:30:43;;;;;;;3.75;2.55;;;14.70;99.90;;;;;;4897015;29;20048;-74
2022/11/01 04:33:09;;;;;;;4.32;2.50;;;14.80;99.90;;;;;;4896771;29;20075;-74
2022/11/01 04:35:35;;;;;;;;;;;14.90;99.90;;;;;;4898291;29;20040;-74
2022/11/01 04:38:01;;;;;;;4.35;2.90;;;14.90;99.90;;;;;;4895313;29;19923;-74
2022/11/01 04:40:26;;;;;;;6.30;2.72;;;15.00;99.90;;;;;;4897051;29;20088;-74
2022/11/01 04:42:52;;;;;;;5.78;2.80;;;15.00;99.90;;;;;;4896968;29;20050;-74
2022/11/01 04:45:18;;;;;;;4.60;2.65;;;14.90;99.90;;;;;;4914034;29;20044;-74
2022/11/01 04:47:49;;;;;;;4.85;2.72;;;15.00;99.90;;;;;;4895739;29;20050;-74
2022/11/01 04:50:16;;;;;;;5.13;2.60;;;14.90;99.90;;;;;;4895294;29;20461;-73
2022/11/01 04:52:41;;;;;;;4.28;2.53;;;15.00;99.90;;;;;;4893281;29;20044;-73
2022/11/01 04:55:07;;;;;;;3.88;2.53;;;15.00;99.90;;;;;;4913031;29;20046;-73
2022/11/01 04:57:40;;;;;;;3.30;2.42;;;14.90;99.90;;;;;;4895465;29;20068;-73
2022/11/01 05:00:10;;;;;;;3.75;2.50;;;14.90;99.90;;;;;;4896179;29;20066;-73
2022/11/01 05:02:36;;;;;;;5.32;3.28;;;14.90;99.90;;;;;;4896717;29;20048;-74
2022/11/01 05:05:03;;;;;;;4.15;2.75;;;15.10;99.90;;;;;;4898482;29;20412;-74
2022/11/01 05:07:29;;;;;;;4.57;2.58;;;15.00;99.90;;;;;;4896387;29;20226;-73
2022/11/01 05:09:54;;;;;;;3.95;2.50;;;15.20;99.90;;;;;;4895673;29;20153;-73
2022/11/01 05:12:20;;;;;;;4.35;2.70;;;15.00;99.90;;;;;;4880511;29;20090;-72
2022/11/01 05:14:46;;;;;;;3.53;2.45;;;15.20;99.90;;;;;;4898127;29;20044;-73
2022/11/01 05:17:11;;;;;;;5.47;2.78;;;15.20;99.90;;;;;;4913521;29;20052;-73
2022/11/01 05:19:37;;;;;;;5.22;3.22;;;15.20;99.90;;;;;;4903590;29;20052;-74
2022/11/01 05:22:03;;;;;;;5.60;2.90;;;15.10;99.90;;;;;;4873669;29;20079;-73
2022/11/01 05:24:29;;;;;;;5.60;3.08;;;15.20;99.90;;;;;;4895100;29;20056;-73
2022/11/01 05:26:55;;;;;;;6.90;3.00;;;15.30;99.90;;;;;;4901229;29;20588;-73
2022/11/01 05:29:20;;;;;;;6.25;3.15;;;15.40;99.90;;;;;;4894143;29;20127;-74
2022/11/01 05:31:46;;;;;;;5.38;2.85;;;15.60;99.90;;;;;;4886962;29;20057;-73
2022/11/01 05:34:12;;;;;;;6.35;3.00;;;15.70;99.90;;;;;;4894144;29;20046;-73
2022/11/01 05:36:38;;;;;;;6.22;2.80;;;15.70;99.90;;;;;;4890340;29;20401;-72
2022/11/01 05:39:04;;;;;;;6.18;3.00;;;15.80;99.90;;;;;;4891488;29;20044;-73
2022/11/01 05:41:29;;;;;;;5.38;2.70;;;15.80;99.90;;;;;;4890925;29;20104;-75
2022/11/01 05:43:55;;;;;;;4.30;2.70;;;15.80;99.90;;;;;;4894356;29;20523;-74
2022/11/01 05:46:21;;;;;;;4.75;2.70;;;15.80;99.90;;;;;;4891889;29;20139;-74
2022/11/01 05:48:46;;;;;;;5.90;2.30;;;15.70;99.90;;;;;;4899273;29;20412;-75
2022/11/01 05:51:12;;;;;;;7.45;2.70;;;15.80;99.90;;;;;;4893893;29;20127;-75
2022/11/01 05:53:37;;;;;;;5.65;2.08;;;15.70;99.90;;;;;;4893834;29;20041;-74
2022/11/01 05:56:03;;;;;;;4.30;1.92;;;15.70;99.90;;;;;;4891401;29;20040;-74
2022/11/01 05:58:29;;;;;;;4.45;1.80;;;15.60;99.90;;;;;;4891301;29;20047;-75
2022/11/01 06:01:13;;;;;;;3.53;1.63;;;15.50;99.90;;;;;;4888444;29;20049;-75
2022/11/01 06:03:39;;;;;;;3.40;1.50;;;15.40;99.90;;;;;;4890639;29;20467;-74
2022/11/01 06:06:05;;;;;;;4.60;1.33;;;15.30;99.90;;;;;;4879104;29;20123;-75
2022/11/01 06:08:31;;;;;;;2.97;1.00;;;15.30;99.90;;;;;;4894601;29;20044;-75
2022/11/01 06:11:02;;;;;;;2.65;1.17;;;15.20;99.90;;;;;;4878405;29;20044;-74
2022/11/01 06:13:27;;;;;;;3.30;1.00;;;15.10;99.90;;;;;;4892843;29;20350;-74
2022/11/01 06:16:04;;;;;;;3.42;0.90;;;15.00;99.90;;;;;;4892960;29;20058;-74
2022/11/01 06:18:30;;;;;;;3.55;1.00;;;14.80;99.90;;;;;;4883410;29;20498;-75
2022/11/01 06:20:57;;;;;;;2.92;1.00;;;14.80;99.90;;;;;;4874646;29;20058;-74
2022/11/01 06:23:22;;;;;;;;;;;14.80;99.90;;;;;;4893717;29;20076;-74
2022/11/01 06:25:48;;;;;;;3.08;0.60;;;14.70;99.90;;;;;;4890898;29;19990;-74
2022/11/01 06:28:14;;;;;;;2.08;0.70;;;14.60;99.90;;;;;;4892116;29;20136;-75
2022/11/01 06:30:42;;;;;;;3.72;1.10;;;14.50;99.90;;;;;;4875623;29;20151;-75
2022/11/01 06:33:08;;;;;;;4.10;1.20;;;14.50;99.90;;;;;;4897616;29;20154;-74
2022/11/01 06:35:34;;;;;;;4.47;0.73;;;14.50;99.90;;;;;;4883895;29;20088;-73
2022/11/01 06:38:07;;;;;;;2.47;0.70;;;14.30;99.90;;;;;;4898332;29;20039;-74
2022/11/01 06:40:34;;;;;;;1.88;0.70;;;14.30;99.90;;;;;;4905448;29;20058;-75
2022/11/01 06:43:01;;;;;;;3.78;0.68;;;14.30;99.90;;;;;;4899893;29;20063;-74
2022/11/01 06:45:28;;;;;;;2.15;0.70;;;14.20;99.90;;;;;;4883487;29;20420;-74
2022/11/01 06:47:53;;;;;;;2.13;0.60;;;14.20;99.90;;;;;;4899353;29;20056;-75
2022/11/01 06:50:19;;;;;;;2.03;0.70;;;14.20;99.90;;;;;;4900613;29;20070;-74
2022/11/01 06:52:45;;;;;;;1.67;0.55;;;14.10;99.90;;;;;;4896709;29;20045;-75
2022/11/01 06:55:10;;;;;;;3.03;0.80;;;14.10;99.90;;;;;;4881100;29;20124;-74
2022/11/01 06:57:36;;;;;;;4.03;0.80;;;14.10;99.90;;;;;;4873418;29;20076;-73
2022/11/01 07:00:03;;;;;;;4.50;1.05;;;14.00;99.90;;;;;;4869942;29;20048;-73
2022/11/01 07:02:29;;;;;;;3.45;0.98;;;14.00;99.90;;;;;;4900577;29;20088;-73
2022/11/01 07:04:54;;;;;;;4.50;1.00;;;14.00;99.90;;;;;;4882383;29;20080;-74
2022/11/01 07:07:20;;;;;;;5.25;0.90;;;14.00;99.90;;;;;;4896810;29;20234;-75
2022/11/01 07:09:45;;;;;;;3.55;0.73;;;13.90;99.90;;;;;;4901131;29;20059;-73
2022/11/01 07:12:11;;;;;;;4.70;1.02;;;13.90;99.90;;;;;;4894588;29;20040;-73
2022/11/01 07:14:37;;;;;;;4.22;1.10;;;13.90;99.90;;;;;;4893133;29;20175;-73
2022/11/01 07:17:02;;;;;;;3.38;0.85;;;13.90;99.90;;;;;;4890446;29;20048;-73
2022/11/01 07:19:28;;;;;;;5.25;1.10;;;13.80;99.90;;;;;;4894991;29;20444;-73
2022/11/01 07:21:54;;;;;;;2.72;0.80;;;13.70;99.90;;;;;;4898475;29;20385;-73
2022/11/01 07:24:20;;;;;;;6.03;1.13;;;13.80;99.90;;;;;;4897039;29;20074;-74
2022/11/01 07:26:45;;;;;;;8.57;1.70;;;13.80;99.90;;;;;;4894617;29;20044;-73
2022/11/01 07:29:12;;;;;;;7.15;1.35;;;13.80;99.90;;;;;;4881290;29;20067;-73
2022/11/01 07:31:37;;;;;;;7.57;1.65;;;13.90;99.90;;;;;;4907874;29;20056;-74
2022/11/01 07:34:04;;;;;;;4.15;1.20;;;14.00;99.90;;;;;;4903566;29;20070;-74
2022/11/01 07:36:30;;;;;;;5.07;1.58;;;14.00;99.90;;;;;;4890723;29;20046;-74
2022/11/01 07:38:55;;;;;;;7.90;1.75;;;14.10;99.90;;;;;;4892589;29;20076;-74
2022/11/01 07:41:21;;;;;;;4.80;1.15;;;14.10;99.90;;;;;;4893640;29;20075;-72
2022/11/01 07:43:47;;;;;;;6.30;1.20;;;14.10;99.90;;;;;;4889714;29;20567;-74
2022/11/01 07:46:12;;;;;;;8.65;1.42;;;14.20;99.90;;;;;;4896807;29;20051;-73
2022/11/01 07:48:38;;;;;;;5.90;1.40;;;14.10;99.90;;;;;;4895896;29;20138;-74
2022/11/01 07:51:05;;;;;;;7.15;1.60;;;14.10;99.90;;;;;;4906120;29;20044;-74
2022/11/01 07:53:31;;;;;;;6.85;1.27;;;14.10;99.90;;;;;;4891404;29;20114;-79
2022/11/01 07:56:00;;;;;;;7.57;1.30;;;14.10;99.90;;;;;;4895438;29;20535;-80
2022/11/01 07:58:26;;;;;;;6.75;1.40;;;14.20;99.90;;;;;;4892988;29;20462;-80
2022/11/01 08:00:51;;;;;;;2.95;1.10;;;14.30;99.90;;;;;;4890378;29;20091;-79
2022/11/01 08:03:18;;;;;;;5.63;1.48;;;14.40;99.90;;;;;;4896878;29;20474;-79
2022/11/01 08:05:45;;;;;;;7.22;1.75;;;14.40;99.90;;;;;;4893744;29;20036;-80
2022/11/01 08:08:12;;;;;;;3.58;1.20;;;14.40;99.90;;;;;;4896135;29;20448;-80
2022/11/01 08:10:38;;;;;;;5.20;1.33;;;14.40;99.90;;;;;;4883472;29;20045;-79
2022/11/01 08:13:12;;;;;;;7.38;1.25;;;14.40;99.90;;;;;;4886470;29;20077;-80
2022/11/01 08:15:38;;;;;;;6.88;1.40;;;14.30;99.90;;;;;;4893472;29;20040;-79
2022/11/01 08:18:04;;;;;;;5.85;1.40;;;14.30;99.90;;;;;;4887269;29;20043;-80
2022/11/01 08:20:30;;;;;;;8.82;1.42;;;14.40;99.90;;;;;;4875876;29;20086;-79
2022/11/01 08:22:56;;;;;;;6.43;1.35;;;14.40;99.90;;;;;;4895235;29;20082;-78
2022/11/01 08:25:22;;;;;;;6.55;1.88;;;14.40;99.90;;;;;;4878511;29;20080;-80
2022/11/01 08:27:48;;;;;;;7.22;1.40;;;14.50;99.90;;;;;;4877862;29;20136;-80
2022/11/01 08:30:16;;;;;;;7.75;1.60;;;14.50;99.90;;;;;;4877323;29;20492;-81
2022/11/01 08:32:42;;;;;;;4.78;1.40;;;14.50;99.90;;;;;;4895905;29;20055;-73
2022/11/01 08:35:10;;;;;;;9.07;1.92;;;14.50;99.90;;;;;;4896741;29;20040;-73
2022/11/01 08:37:37;;;;;;;8.05;1.70;;;14.60;99.90;;;;;;4894017;29;20123;-72
2022/11/01 08:40:04;;;;;;;9.20;1.85;;;14.60;99.90;;;;;;4877040;29;20044;-72
2022/11/01 08:42:29;;;;;;;6.63;1.80;;;14.50;99.90;;;;;;4897176;29;20052;-73
2022/11/01 08:44:55;;;;;;;7.35;1.48;;;14.50;99.90;;;;;;4877747;29;20107;-73
2022/11/01 08:47:21;;;;;;;6.70;1.52;;;14.50;99.90;;;;;;4877492;29;20517;-73
2022/11/01 08:49:46;;;;;;;9.52;1.90;;;14.50;99.90;;;;;;4876662;29;20381;-72
2022/11/01 08:52:12;;;;;;;10.25;1.88;;;14.40;99.90;;;;;;4873757;29;20044;-73
2022/11/01 08:54:38;;;;;;;9.85;2.08;;;14.40;99.90;;;;;;4893180;29;20038;-73
2022/11/01 08:57:03;;;;;;;7.75;1.90;;;14.40;99.90;;;;;;4893133;29;20070;-73
2022/11/01 08:59:29;;;;;;;8.23;1.60;;;14.40;99.90;;;;;;4892542;29;20086;-72
2022/11/01 09:01:55;;;;;;;6.45;1.70;;;14.40;99.90;;;;;;4898613;29;20055;-72
2022/11/01 09:04:20;;;;;;;12.95;2.08;;;14.40;99.90;;;;;;4910642;29;20044;-72
2022/11/01 09:06:46;;;;;;;10.70;2.30;;;14.40;99.90;;;;;;4897998;29;20147;-72
2022/11/01 09:09:12;;;;;;;9.27;1.92;;;14.50;99.90;;;;;;4882219;29;20115;-72
2022/11/01 09:11:38;;;;;;;10.88;1.90;;;14.50;99.90;;;;;;4908584;29;20134;-73
2022/11/01 09:14:04;;;;;;;11.10;2.50;;;14.50;99.90;;;;;;4889210;29;20040;-72
2022/11/01 09:16:31;;;;;;;6.82;2.10;;;14.50;99.90;;;;;;4897918;29;20047;-74
2022/11/01 09:19:00;;;;;;;12.80;2.50;;;14.60;99.90;;;;;;4881740;29;20070;-73
2022/11/01 09:21:27;;;;;;;13.45;2.40;;;14.70;99.90;;;;;;4895690;29;20210;-72
2022/11/01 09:23:53;;;;;;;11.35;2.45;;;14.80;99.90;;;;;;4882929;29;20048;-73
2022/11/01 09:26:19;;;;;;;10.95;2.22;;;14.90;99.90;;;;;;4899662;29;20044;-73
2022/11/01 09:28:45;;;;;;;7.75;2.13;;;15.00;99.90;;;;;;4898149;29;20051;-73
2022/11/01 09:31:12;;;;;;;12.32;2.40;;;15.10;99.90;;;;;;4881177;29;20436;-73
2022/11/01 09:33:37;;;;;;;12.45;2.42;;;15.10;99.90;;;;;;4891768;29;20106;-74
2022/11/01 09:36:03;;;;;;;8.77;2.30;;;15.10;99.90;;;;;;4885247;29;20043;-82
2022/11/01 09:38:29;;;;;;;9.23;2.25;;;15.10;99.90;;;;;;4889910;29;20123;-81
2022/11/01 09:41:04;;;;;;;11.82;2.70;;;15.10;99.90;;;;;;4875879;29;20059;-81
2022/11/01 09:43:33;;;;;;;10.00;2.38;;;15.10;99.90;;;;;;4896213;29;20044;-80
2022/11/01 09:46:01;;;;;;;10.60;2.00;;;15.10;99.90;;;;;;4901001;29;20044;-81
2022/11/01 09:48:29;;;;;;;10.32;1.90;;;15.20;99.90;;;;;;4896180;29;20056;-80
2022/11/01 09:50:55;;;;;;;7.60;2.20;;;15.30;99.90;;;;;;4896370;29;20044;-80
2022/11/01 09:53:24;;;;;;;12.98;2.60;;;15.30;99.90;;;;;;4896700;29;20513;-81
2022/11/01 09:56:11;;;;;;;10.50;2.13;;;15.30;99.90;;;;;;4898410;29;20048;-82
2022/11/01 09:58:45;;;;;;;9.00;2.28;;;15.20;99.90;;;;;;4890317;29;20547;-82
2022/11/01 10:01:41;;;;;;;10.90;2.17;;;15.20;99.90;;;;;;4894113;29;20163;-80
2022/11/01 10:04:29;;;;;;;8.55;2.63;;;15.20;99.90;;;;;;4897010;29;20051;-80
2022/11/01 10:07:20;;;;;;;10.38;2.03;;;15.20;99.90;;;;;;4901926;29;20055;-81
2022/11/01 10:10:15;;;;;;;9.55;2.03;;;15.20;99.90;;;;;;4898037;29;20090;-82
2022/11/01 10:12:43;;;;;;;7.13;1.77;;;15.30;99.90;;;;;;4896567;29;20048;-81
2022/11/01 10:15:27;;;;;;;9.07;2.10;;;15.30;99.90;;;;;;4900408;29;20044;-81
2022/11/01 10:17:56;;;;;;;10.32;2.60;;;15.50;99.90;;;;;;4912894;29;20036;-82
2022/11/01 10:20:36;;;;;;;12.05;2.83;;;15.60;99.90;;;;;;4901181;29;20106;-79
2022/11/01 10:23:04;;;;;;;11.15;2.58;;;15.60;99.90;;;;;;4917363;29;20040;-80
2022/11/01 10:25:32;;;;;;;9.30;2.17;;;15.50;99.90;;;;;;4907268;29;20050;-81
2022/11/01 10:28:16;;;;;;;8.90;2.25;;;15.50;99.90;;;;;;4901502;29;20079;-80
2022/11/01 10:30:49;;;;;;;9.63;2.45;;;15.40;99.90;;;;;;4898741;29;20116;-80
2022/11/01 10:33:20;;;;;;;7.00;2.10;;;15.50;99.90;;;;;;4897232;29;20048;-79
2022/11/01 10:35:52;;;;;;;9.88;2.28;;;15.70;99.90;;;;;;4898716;29;20396;-79
2022/11/01 10:38:44;;;;;;;8.02;2.00;;;15.70;99.90;;;;;;4898525;29;20128;-81
2022/11/01 10:41:46;;;;;;;7.72;2.33;;;15.80;99.90;;;;;;4909834;29;20081;-80
2022/11/01 10:44:27;;;;;;;13.00;2.88;;;15.90;99.90;;;;;;4860942;29;20925;-81
2022/11/01 10:46:55;;;;;;;8.85;2.25;;;16.10;99.90;;;;;;4906138;29;20151;-80
2022/11/01 10:49:34;;;;;;;6.53;1.75;;;16.10;99.90;;;;;;4893521;29;20123;-79
2022/11/01 10:52:06;;;;;;;10.05;2.38;;;16.10;99.90;;;;;;4887358;29;20528;-80
2022/11/01 10:54:36;;;;;;;9.55;2.15;;;15.90;99.90;;;;;;4914060;29;20196;-80
2022/11/01 10:57:07;;;;;;;13.30;2.20;;;15.90;99.90;;;;;;4904332;29;20097;-80
2022/11/01 10:59:40;;;;;;;11.90;2.72;;;15.80;99.90;;;;;;4898347;29;20389;-82
2022/11/01 11:02:33;;;;;;;10.65;2.80;;;15.70;99.90;;;;;;4890669;29;20037;-81
2022/11/01 11:04:59;;;;;;;8.20;2.10;;;15.60;99.90;;;;;;4894820;29;20044;-79
2022/11/01 11:07:29;;;;;;;10.23;2.05;;;15.40;99.90;;;;;;4880744;29;20045;-80
2022/11/01 11:09:55;;;;;;;10.35;2.58;;;15.30;99.90;;;;;;4911097;29;20056;-80
2022/11/01 11:12:23;;;;;;;8.25;1.90;;;15.10;99.90;;;;;;4895781;29;20499;-79
2022/11/01 11:14:54;;;;;;;11.48;2.35;;;15.10;99.90;;;;;;4892419;29;20045;-81
2022/11/01 11:17:27;;;;;;;10.43;2.05;;;15.10;99.90;;;;;;4891750;29;20045;-80
2022/11/01 11:19:54;;;;;;;8.95;2.35;;;15.10;99.90;;;;;;4884984;29;20048;-80
2022/11/01 11:22:22;;;;;;;9.68;2.28;;;15.10;99.90;;;;;;4896888;29;20127;-81
2022/11/01 11:24:48;;;;;;;13.27;2.28;;;15.20;99.90;;;;;;4903808;29;20049;-82
2022/11/01 11:27:22;;;;;;;8.88;2.10;;;15.20;99.90;;;;;;4902506;29;20045;-80
2022/11/01 11:29:48;;;;;;;9.55;2.05;;;15.20;99.90;;;;;;4897626;29;20139;-82
2022/11/01 11:32:19;;;;;;;9.13;2.33;;;15.20;99.90;;;;;;4895489;29;20144;-81
2022/11/01 11:35:05;;;;;;;8.60;2.17;;;15.20;99.90;;;;;;4898444;29;20461;-81
2022/11/01 11:37:34;;;;;;;7.13;1.77;;;15.30;99.90;;;;;;4900081;29;20052;-80
2022/11/01 11:40:23;;;;;;;9.50;2.10;;;15.30;99.90;;;;;;4887845;29;20126;-80
2022/11/01 11:42:51;;;;;;;9.98;2.70;;;15.30;99.90;;;;;;4891569;29;20087;-78
2022/11/01 11:45:21;;;;;;;8.60;2.10;;;15.30;99.90;;;;;;4884183;29;20504;-80
2022/11/01 11:47:47;;;;;;;8.35;2.35;;;15.60;99.90;;;;;;4899566;29;20048;-79
2022/11/01 11:50:15;;;;;;;;;;;15.80;99.90;;;;;;4895727;29;20385;-80
2022/11/01 11:52:41;;;;;;;8.60;2.05;;;16.00;99.90;;;;;;4907184;29;20441;-79
2022/11/01 11:55:26;;;;;;;9.27;2.25;;;16.10;99.90;;;;;;4905417;29;20044;-79
2022/11/01 11:57:54;;;;;;;7.50;1.70;;;16.40;99.90;;;;;;4911521;29;20126;-79
2022/11/01 12:00:23;;;;;;;9.20;2.40;;;16.50;99.90;;;;;;4898678;29;20050;-81
2022/11/01 12:02:49;;;;;;;8.80;2.17;;;16.70;99.90;;;;;;4914282;29;20044;-80
2022/11/01 12:05:25;;;;;;;9.80;2.15;;;16.70;99.90;;;;;;4884704;29;20040;-81
2022/11/01 12:07:53;;;;;;;6.60;1.50;;;16.70;99.90;;;;;;4913849;29;20119;-81
2022/11/01 12:10:35;;;;;;;7.78;2.20;;;16.80;99.90;;;;;;4915691;29;20048;-81
2022/11/01 12:13:03;;;;;;;10.68;2.47;;;16.90;99.90;;;;;;4902617;29;20047;-81
2022/11/01 12:15:34;;;;;;;8.85;2.08;;;16.70;99.90;;;;;;4897087;29;20176;-81
2022/11/01 12:18:26;;;;;;;7.13;1.92;;;16.70;99.90;;;;;;4897336;29;20178;-81
2022/11/01 12:20:52;;;;;;;8.38;2.17;;;16.80;99.90;;;;;;4893622;29;20044;-81
2022/11/01 12:23:30;;;;;;;7.30;1.90;;;17.10;99.90;;;;;;4865469;29;20094;-82
2022/11/01 12:25:58;;;;;;;7.65;1.80;;;17.20;99.90;;;;;;4882240;29;20052;-82
2022/11/01 12:28:41;;;;;;;7.55;2.17;;;17.30;99.90;;;;;;4894764;29;20056;-81
2022/11/01 12:31:18;;;;;;;7.72;1.83;;;17.10;99.90;;;;;;4906352;29;20056;-80
2022/11/01 12:34:11;;;;;;;8.88;2.13;;;17.10;99.90;;;;;;4905532;29;20147;-81
2022/11/01 12:37:01;;;;;;;7.30;1.83;;;17.20;99.90;;;;;;4899359;29;20056;-80
2022/11/01 12:39:46;;;;;;;8.32;2.13;;;17.30;99.90;;;;;;4897881;29;20524;-83
2022/11/01 12:42:21;;;;;;;7.97;1.90;;;17.30;99.90;;;;;;4885785;29;20069;-82
2022/11/01 12:44:51;;;;;;;9.30;2.00;;;17.20;99.90;;;;;;4913988;29;20088;-81
2022/11/01 12:47:20;;;;;;;8.63;2.08;;;17.00;99.90;;;;;;4898829;29;20066;-81
2022/11/01 12:49:56;;;;;;;8.50;1.85;;;17.10;99.90;;;;;;4898505;29;20406;-80
2022/11/01 12:52:41;;;;;;;6.53;1.88;;;17.30;99.90;;;;;;4909373;29;20040;-83
2022/11/01 12:55:37;;;;;;;5.88;1.65;;;17.50;99.90;;;;;;4885433;29;20032;-80
2022/11/01 12:58:08;;;;;;;7.72;1.77;;;17.50;99.90;;;;;;4898473;29;20041;-82
2022/11/01 13:00:58;;;;;;;9.40;2.00;;;17.50;99.90;;;;;;4893514;29;20056;-81
2022/11/01 13:03:33;;;;;;;5.80;1.25;;;17.40;99.90;;;;;;4888903;29;20114;-80
2022/11/01 13:06:43;;;;;;;8.13;1.55;;;17.40;99.90;;;;;;4910139;29;20047;-81